sensor_id;sensor_type;location;lat;lon;timestamp;temperature;humidity
11650;DHT22;5881;48.522;7.682;2023-10-13T00:01:34;18.00;99.90
11650;DHT22;5881;48.522;7.682;2023-10-13T00:04:00;18.00;99.90
11650;DHT22;5881;48.522;7.682;2023-10-13T00:06:30;18.00;99.90
11650;DHT22;5881;48.522;7.682;2023-10-13T00:08:56;17.90;99.90
11650;DHT22;5881;48.522;7.682;2023-10-13T00:11:22;17.80;99.90
11650;DHT22;5881;48.522;7.682;2023-10-13T00:13:47;17.70;99.90
11650;DHT22;5881;48.522;7.682;2023-10-13T00:16:17;17.60;99.90
11650;DHT22;5881;48.522;7.682;2023-10-13T00:18:50;17.60;99.90
11650;DHT22;5881;48.522;7.682;2023-10-13T00:21:19;17.50;99.90
11650;DHT22;5881;48.522;7.682;2023-10-13T00:23:57;17.40;99.90
11650;DHT22;5881;48.522;7.682;2023-10-13T00:26:26;17.40;99.90
11650;DHT22;5881;48.522;7.682;2023-10-13T00:28:55;17.30;99.90
11650;DHT22;5881;48.522;7.682;2023-10-13T00:31:40;17.30;99.90
11650;DHT22;5881;48.522;7.682;2023-10-13T00:34:08;17.10;99.90
11650;DHT22;5881;48.522;7.682;2023-10-13T00:36:41;17.10;99.90
11650;DHT22;5881;48.522;7.682;2023-10-13T00:39:26;16.90;99.90
11650;DHT22;5881;48.522;7.682;2023-10-13T00:41:54;16.90;99.90
11650;DHT22;5881;48.522;7.682;2023-10-13T00:44:23;16.80;99.90
11650;DHT22;5881;48.522;7.682;2023-10-13T00:47:04;16.80;99.90
11650;DHT22;5881;48.522;7.682;2023-10-13T00:49:33;16.80;99.90
11650;DHT22;5881;48.522;7.682;2023-10-13T00:52:08;16.80;99.90
11650;DHT22;5881;48.522;7.682;2023-10-13T00:54:37;16.70;99.90
11650;DHT22;5881;48.522;7.682;2023-10-13T00:57:04;16.70;99.90
11650;DHT22;5881;48.522;7.682;2023-10-13T00:59:33;16.80;99.90
11650;DHT22;5881;48.522;7.682;2023-10-13T01:02:02;16.80;99.90
11650;DHT22;5881;48.522;7.682;2023-10-13T01:04:48;16.80;99.90
11650;DHT22;5881;48.522;7.682;2023-10-13T01:07:14;16.80;99.90
11650;DHT22;5881;48.522;7.682;2023-10-13T01:09:44;16.70;99.90
11650;DHT22;5881;48.522;7.682;2023-10-13T01:12:12;16.60;99.90
11650;DHT22;5881;48.522;7.682;2023-10-13T01:14:38;16.60;99.90
11650;DHT22;5881;48.522;7.682;2023-10-13T01:17:04;16.80;99.90
11650;DHT22;5881;48.522;7.682;2023-10-13T01:19:30;16.80;99.90
11650;DHT22;5881;48.522;7.682;2023-10-13T01:21:55;16.80;99.90
11650;DHT22;5881;48.522;7.682;2023-10-13T01:24:28;16.80;99.90
11650;DHT22;5881;48.522;7.682;2023-10-13T01:26:57;16.80;99.90
11650;DHT22;5881;48.522;7.682;2023-10-13T01:29:24;16.90;99.90
11650;DHT22;5881;48.522;7.682;2023-10-13T01:31:54;16.90;99.90
11650;DHT22;5881;48.522;7.682;2023-10-13T01:34:20;16.90;99.90
11650;DHT22;5881;48.522;7.682;2023-10-13T01:36:50;16.90;99.90
11650;DHT22;5881;48.522;7.682;2023-10-13T01:39:23;16.90;99.90
11650;DHT22;5881;48.522;7.682;2023-10-13T01:41:56;16.90;99.90
11650;DHT22;5881;48.522;7.682;2023-10-13T01:44:26;17.00;99.90
11650;DHT22;5881;48.522;7.682;2023-10-13T01:46:53;17.00;99.90
11650;DHT22;5881;48.522;7.682;2023-10-13T01:49:19;16.90;99.90
11650;DHT22;5881;48.522;7.682;2023-10-13T01:51:47;16.90;99.90
11650;DHT22;5881;48.522;7.682;2023-10-13T01:54:13;16.90;99.90
11650;DHT22;5881;48.522;7.682;2023-10-13T01:56:41;16.80;99.90
11650;DHT22;5881;48.522;7.682;2023-10-13T01:59:11;16.80;99.90
11650;DHT22;5881;48.522;7.682;2023-10-13T02:01:37;16.70;99.90
11650;DHT22;5881;48.522;7.682;2023-10-13T02:04:03;16.70;99.90
11650;DHT22;5881;48.522;7.682;2023-10-13T02:06:34;16.60;99.90
11650;DHT22;5881;48.522;7.682;2023-10-13T02:09:10;16.50;99.90
11650;DHT22;5881;48.522;7.682;2023-10-13T02:11:43;16.50;99.90
11650;DHT22;5881;48.522;7.682;2023-10-13T02:14:13;16.50;99.90
11650;DHT22;5881;48.522;7.682;2023-10-13T02:16:41;16.50;99.90
11650;DHT22;5881;48.522;7.682;2023-10-13T02:19:07;16.60;99.90
11650;DHT22;5881;48.522;7.682;2023-10-13T02:21:34;16.50;99.90
11650;DHT22;5881;48.522;7.682;2023-10-13T02:24:07;16.50;99.90
11650;DHT22;5881;48.522;7.682;2023-10-13T02:26:38;16.60;99.90
11650;DHT22;5881;48.522;7.682;2023-10-13T02:29:05;16.60;99.90
11650;DHT22;5881;48.522;7.682;2023-10-13T02:31:38;16.60;99.90
11650;DHT22;5881;48.522;7.682;2023-10-13T02:34:05;16.50;99.90
11650;DHT22;5881;48.522;7.682;2023-10-13T02:36:38;16.40;99.90
11650;DHT22;5881;48.522;7.682;2023-10-13T02:39:15;16.30;99.90
11650;DHT22;5881;48.522;7.682;2023-10-13T02:41:43;16.30;99.90
11650;DHT22;5881;48.522;7.682;2023-10-13T02:44:14;16.30;99.90
11650;DHT22;5881;48.522;7.682;2023-10-13T02:47:00;16.20;99.90
11650;DHT22;5881;48.522;7.682;2023-10-13T02:49:26;16.20;99.90
11650;DHT22;5881;48.522;7.682;2023-10-13T02:51:53;16.10;99.90
11650;DHT22;5881;48.522;7.682;2023-10-13T02:54:21;16.10;99.90
11650;DHT22;5881;48.522;7.682;2023-10-13T02:56:46;16.10;99.90
11650;DHT22;5881;48.522;7.682;2023-10-13T02:59:31;16.10;99.90
11650;DHT22;5881;48.522;7.682;2023-10-13T03:02:05;16.10;99.90
11650;DHT22;5881;48.522;7.682;2023-10-13T03:04:55;16.20;99.90
11650;DHT22;5881;48.522;7.682;2023-10-13T03:07:28;16.20;99.90
11650;DHT22;5881;48.522;7.682;2023-10-13T03:09:55;16.10;99.90
11650;DHT22;5881;48.522;7.682;2023-10-13T03:12:25;16.10;99.90
11650;DHT22;5881;48.522;7.682;2023-10-13T03:14:51;16.00;99.90
11650;DHT22;5881;48.522;7.682;2023-10-13T03:17:22;16.00;99.90
11650;DHT22;5881;48.522;7.682;2023-10-13T03:19:59;16.00;99.90
11650;DHT22;5881;48.522;7.682;2023-10-13T03:22:25;16.00;99.90
11650;DHT22;5881;48.522;7.682;2023-10-13T03:24:58;16.00;99.90
11650;DHT22;5881;48.522;7.682;2023-10-13T03:27:31;16.00;99.90
11650;DHT22;5881;48.522;7.682;2023-10-13T03:30:14;16.00;99.90
11650;DHT22;5881;48.522;7.682;2023-10-13T03:32:40;16.10;99.90
11650;DHT22;5881;48.522;7.682;2023-10-13T03:35:14;16.20;99.90
11650;DHT22;5881;48.522;7.682;2023-10-13T03:37:49;16.10;99.90
11650;DHT22;5881;48.522;7.682;2023-10-13T03:40:15;16.00;99.90
11650;DHT22;5881;48.522;7.682;2023-10-13T03:42:53;16.10;99.90
11650;DHT22;5881;48.522;7.682;2023-10-13T03:45:25;16.00;99.90
11650;DHT22;5881;48.522;7.682;2023-10-13T03:47:54;15.90;99.90
11650;DHT22;5881;48.522;7.682;2023-10-13T03:50:20;15.90;99.90
11650;DHT22;5881;48.522;7.682;2023-10-13T03:52:55;15.80;99.90
11650;DHT22;5881;48.522;7.682;2023-10-13T03:55:27;15.80;99.90
11650;DHT22;5881;48.522;7.682;2023-10-13T03:57:53;15.80;99.90
11650;DHT22;5881;48.522;7.682;2023-10-13T04:00:20;15.80;99.90
11650;DHT22;5881;48.522;7.682;2023-10-13T04:02:51;15.70;99.90
11650;DHT22;5881;48.522;7.682;2023-10-13T04:05:32;15.60;99.90
11650;DHT22;5881;48.522;7.682;2023-10-13T04:08:26;15.70;99.90
11650;DHT22;5881;48.522;7.682;2023-10-13T04:10:56;15.60;99.90
11650;DHT22;5881;48.522;7.682;2023-10-13T04:13:42;15.60;99.90
11650;DHT22;5881;48.522;7.682;2023-10-13T04:16:26;15.50;99.90
11650;DHT22;5881;48.522;7.682;2023-10-13T04:19:02;15.50;99.90
11650;DHT22;5881;48.522;7.682;2023-10-13T04:21:28;15.60;99.90
11650;DHT22;5881;48.522;7.682;2023-10-13T04:24:08;15.60;99.90
11650;DHT22;5881;48.522;7.682;2023-10-13T04:26:49;15.70;99.90
11650;DHT22;5881;48.522;7.682;2023-10-13T04:29:33;15.70;99.90
11650;DHT22;5881;48.522;7.682;2023-10-13T04:32:36;15.80;99.90
11650;DHT22;5881;48.522;7.682;2023-10-13T04:35:11;16.00;99.90
11650;DHT22;5881;48.522;7.682;2023-10-13T04:37:40;16.00;99.90
11650;DHT22;5881;48.522;7.682;2023-10-13T04:40:26;16.00;99.90
11650;DHT22;5881;48.522;7.682;2023-10-13T04:42:54;16.00;99.90
11650;DHT22;5881;48.522;7.682;2023-10-13T04:45:23;16.10;99.90
11650;DHT22;5881;48.522;7.682;2023-10-13T04:48:00;16.10;99.90
11650;DHT22;5881;48.522;7.682;2023-10-13T04:50:48;16.10;99.90
11650;DHT22;5881;48.522;7.682;2023-10-13T04:53:18;16.10;99.90
11650;DHT22;5881;48.522;7.682;2023-10-13T04:55:55;16.10;99.90
11650;DHT22;5881;48.522;7.682;2023-10-13T04:58:30;16.10;99.90
11650;DHT22;5881;48.522;7.682;2023-10-13T05:01:04;16.10;99.90
11650;DHT22;5881;48.522;7.682;2023-10-13T05:04:02;16.10;99.90
11650;DHT22;5881;48.522;7.682;2023-10-13T05:06:46;16.10;99.90
11650;DHT22;5881;48.522;7.682;2023-10-13T05:09:13;16.00;99.90
11650;DHT22;5881;48.522;7.682;2023-10-13T05:11:57;16.00;99.90
11650;DHT22;5881;48.522;7.682;2023-10-13T05:14:41;16.00;99.90
11650;DHT22;5881;48.522;7.682;2023-10-13T05:17:26;16.00;99.90
11650;DHT22;5881;48.522;7.682;2023-10-13T05:20:10;16.00;99.90
11650;DHT22;5881;48.522;7.682;2023-10-13T05:22:54;16.00;99.90
11650;DHT22;5881;48.522;7.682;2023-10-13T05:25:38;16.00;99.90
11650;DHT22;5881;48.522;7.682;2023-10-13T05:28:23;15.90;99.90
11650;DHT22;5881;48.522;7.682;2023-10-13T05:31:07;15.90;99.90
11650;DHT22;5881;48.522;7.682;2023-10-13T05:33:52;15.80;99.90
11650;DHT22;5881;48.522;7.682;2023-10-13T05:36:36;15.80;99.90
11650;DHT22;5881;48.522;7.682;2023-10-13T05:39:21;15.80;99.90
11650;DHT22;5881;48.522;7.682;2023-10-13T05:42:05;15.70;99.90
11650;DHT22;5881;48.522;7.682;2023-10-13T05:44:50;15.70;99.90
11650;DHT22;5881;48.522;7.682;2023-10-13T05:47:23;15.60;99.90
11650;DHT22;5881;48.522;7.682;2023-10-13T05:50:12;15.70;99.90
11650;DHT22;5881;48.522;7.682;2023-10-13T05:52:45;15.60;99.90
11650;DHT22;5881;48.522;7.682;2023-10-13T05:55:22;15.70;99.90
11650;DHT22;5881;48.522;7.682;2023-10-13T05:58:05;15.60;99.90
11650;DHT22;5881;48.522;7.682;2023-10-13T06:00:49;15.60;99.90
11650;DHT22;5881;48.522;7.682;2023-10-13T06:03:33;15.80;99.90
11650;DHT22;5881;48.522;7.682;2023-10-13T06:06:17;15.90;99.90
11650;DHT22;5881;48.522;7.682;2023-10-13T06:09:01;16.00;99.90
11650;DHT22;5881;48.522;7.682;2023-10-13T06:11:45;16.20;99.90
11650;DHT22;5881;48.522;7.682;2023-10-13T06:14:29;16.40;99.90
11650;DHT22;5881;48.522;7.682;2023-10-13T06:17:13;16.90;99.90
11650;DHT22;5881;48.522;7.682;2023-10-13T06:19:57;17.20;99.90
11650;DHT22;5881;48.522;7.682;2023-10-13T06:22:42;17.20;99.90
11650;DHT22;5881;48.522;7.682;2023-10-13T06:25:26;17.10;99.90
11650;DHT22;5881;48.522;7.682;2023-10-13T06:28:10;17.20;99.90
11650;DHT22;5881;48.522;7.682;2023-10-13T06:30:58;17.70;99.90
11650;DHT22;5881;48.522;7.682;2023-10-13T06:33:26;17.30;99.90
11650;DHT22;5881;48.522;7.682;2023-10-13T06:35:57;17.20;99.90
11650;DHT22;5881;48.522;7.682;2023-10-13T06:38:23;17.20;99.90
11650;DHT22;5881;48.522;7.682;2023-10-13T06:40:49;17.20;99.90
11650;DHT22;5881;48.522;7.682;2023-10-13T06:43:18;17.20;99.90
11650;DHT22;5881;48.522;7.682;2023-10-13T06:45:48;17.20;99.90
11650;DHT22;5881;48.522;7.682;2023-10-13T06:48:25;17.30;99.90
11650;DHT22;5881;48.522;7.682;2023-10-13T06:50:52;17.40;99.90
11650;DHT22;5881;48.522;7.682;2023-10-13T06:53:20;17.60;99.90
11650;DHT22;5881;48.522;7.682;2023-10-13T06:55:46;17.80;99.90
11650;DHT22;5881;48.522;7.682;2023-10-13T06:58:18;17.80;99.90
11650;DHT22;5881;48.522;7.682;2023-10-13T07:00:49;18.50;99.90
11650;DHT22;5881;48.522;7.682;2023-10-13T07:03:24;19.10;99.90
11650;DHT22;5881;48.522;7.682;2023-10-13T07:05:50;18.50;99.90
11650;DHT22;5881;48.522;7.682;2023-10-13T07:08:17;18.10;99.90
11650;DHT22;5881;48.522;7.682;2023-10-13T07:10:50;17.80;99.90
11650;DHT22;5881;48.522;7.682;2023-10-13T07:13:28;17.80;99.90
11650;DHT22;5881;48.522;7.682;2023-10-13T07:15:55;17.90;99.90
11650;DHT22;5881;48.522;7.682;2023-10-13T07:18:31;17.90;99.90
11650;DHT22;5881;48.522;7.682;2023-10-13T07:21:03;18.50;99.90
11650;DHT22;5881;48.522;7.682;2023-10-13T07:23:35;18.90;99.90
11650;DHT22;5881;48.522;7.682;2023-10-13T07:26:01;20.10;99.90
11650;DHT22;5881;48.522;7.682;2023-10-13T07:28:30;20.20;99.90
11650;DHT22;5881;48.522;7.682;2023-10-13T07:30:57;20.80;99.90
11650;DHT22;5881;48.522;7.682;2023-10-13T07:33:25;21.30;99.90
11650;DHT22;5881;48.522;7.682;2023-10-13T07:36:06;21.30;99.90
11650;DHT22;5881;48.522;7.682;2023-10-13T07:38:45;22.30;99.90
11650;DHT22;5881;48.522;7.682;2023-10-13T07:41:17;23.00;99.90
11650;DHT22;5881;48.522;7.682;2023-10-13T07:43:43;22.20;99.90
11650;DHT22;5881;48.522;7.682;2023-10-13T07:46:10;22.50;99.90
11650;DHT22;5881;48.522;7.682;2023-10-13T07:48:40;22.50;99.90
11650;DHT22;5881;48.522;7.682;2023-10-13T07:51:08;22.50;99.90
11650;DHT22;5881;48.522;7.682;2023-10-13T07:53:40;22.10;99.90
11650;DHT22;5881;48.522;7.682;2023-10-13T07:56:07;21.50;99.90
11650;DHT22;5881;48.522;7.682;2023-10-13T07:58:34;21.50;99.90
11650;DHT22;5881;48.522;7.682;2023-10-13T08:01:02;22.40;99.90
11650;DHT22;5881;48.522;7.682;2023-10-13T08:03:34;23.50;99.90
11650;DHT22;5881;48.522;7.682;2023-10-13T08:06:09;23.60;99.90
11650;DHT22;5881;48.522;7.682;2023-10-13T08:08:38;23.90;99.90
11650;DHT22;5881;48.522;7.682;2023-10-13T08:11:08;22.90;99.90
11650;DHT22;5881;48.522;7.682;2023-10-13T08:13:38;23.20;99.90
11650;DHT22;5881;48.522;7.682;2023-10-13T08:16:04;23.50;99.90
11650;DHT22;5881;48.522;7.682;2023-10-13T08:18:33;22.70;99.90
11650;DHT22;5881;48.522;7.682;2023-10-13T08:21:01;23.10;99.90
11650;DHT22;5881;48.522;7.682;2023-10-13T08:23:31;23.20;99.90
11650;DHT22;5881;48.522;7.682;2023-10-13T08:26:24;22.60;99.90
11650;DHT22;5881;48.522;7.682;2023-10-13T08:29:03;22.20;99.90
11650;DHT22;5881;48.522;7.682;2023-10-13T08:31:50;21.70;99.90
11650;DHT22;5881;48.522;7.682;2023-10-13T08:34:35;21.70;99.90
11650;DHT22;5881;48.522;7.682;2023-10-13T08:37:28;21.80;99.90
11650;DHT22;5881;48.522;7.682;2023-10-13T08:39:56;21.70;99.90
11650;DHT22;5881;48.522;7.682;2023-10-13T08:42:30;21.40;99.90
11650;DHT22;5881;48.522;7.682;2023-10-13T08:45:12;21.30;99.90
11650;DHT22;5881;48.522;7.682;2023-10-13T08:47:57;21.50;99.90
11650;DHT22;5881;48.522;7.682;2023-10-13T08:50:49;21.40;99.90
11650;DHT22;5881;48.522;7.682;2023-10-13T08:53:28;21.20;99.90
11650;DHT22;5881;48.522;7.682;2023-10-13T08:56:05;21.40;99.90
11650;DHT22;5881;48.522;7.682;2023-10-13T08:58:43;21.50;99.90
11650;DHT22;5881;48.522;7.682;2023-10-13T09:01:28;21.40;99.90
11650;DHT22;5881;48.522;7.682;2023-10-13T09:04:07;21.60;99.90
11650;DHT22;5881;48.522;7.682;2023-10-13T09:06:55;21.60;99.90
11650;DHT22;5881;48.522;7.682;2023-10-13T09:09:55;21.60;99.90
11650;DHT22;5881;48.522;7.682;2023-10-13T09:12:24;22.50;99.90
11650;DHT22;5881;48.522;7.682;2023-10-13T09:15:10;22.30;99.90
11650;DHT22;5881;48.522;7.682;2023-10-13T09:17:43;22.10;99.90
11650;DHT22;5881;48.522;7.682;2023-10-13T09:20:30;21.90;99.90
11650;DHT22;5881;48.522;7.682;2023-10-13T09:23:09;22.60;99.90
11650;DHT22;5881;48.522;7.682;2023-10-13T09:25:37;23.20;99.90
11650;DHT22;5881;48.522;7.682;2023-10-13T09:28:13;23.40;99.90
11650;DHT22;5881;48.522;7.682;2023-10-13T09:30:52;24.60;99.90
11650;DHT22;5881;48.522;7.682;2023-10-13T09:33:22;25.80;99.90
11650;DHT22;5881;48.522;7.682;2023-10-13T09:36:08;25.80;99.20
11650;DHT22;5881;48.522;7.682;2023-10-13T09:38:38;27.40;97.40
11650;DHT22;5881;48.522;7.682;2023-10-13T09:41:29;27.10;95.00
11650;DHT22;5881;48.522;7.682;2023-10-13T09:43:57;26.90;94.30
11650;DHT22;5881;48.522;7.682;2023-10-13T09:46:26;26.90;93.20
11650;DHT22;5881;48.522;7.682;2023-10-13T09:48:57;26.90;92.70
11650;DHT22;5881;48.522;7.682;2023-10-13T09:51:33;27.20;1.00
11650;DHT22;5881;48.522;7.682;2023-10-13T09:54:06;27.10;1.00
11650;DHT22;5881;48.522;7.682;2023-10-13T09:56:47;27.60;1.00
11650;DHT22;5881;48.522;7.682;2023-10-13T09:59:31;27.30;1.00
11650;DHT22;5881;48.522;7.682;2023-10-13T10:02:07;27.90;1.00
11650;DHT22;5881;48.522;7.682;2023-10-13T10:04:54;27.90;1.00
11650;DHT22;5881;48.522;7.682;2023-10-13T10:07:36;27.60;1.00
11650;DHT22;5881;48.522;7.682;2023-10-13T10:10:05;27.50;1.00
11650;DHT22;5881;48.522;7.682;2023-10-13T10:13:05;27.50;1.00
11650;DHT22;5881;48.522;7.682;2023-10-13T10:15:35;28.10;1.00
11650;DHT22;5881;48.522;7.682;2023-10-13T10:18:21;29.00;1.00
11650;DHT22;5881;48.522;7.682;2023-10-13T10:21:03;28.10;1.00
11650;DHT22;5881;48.522;7.682;2023-10-13T10:23:33;28.50;1.00
11650;DHT22;5881;48.522;7.682;2023-10-13T10:26:13;28.00;1.00
11650;DHT22;5881;48.522;7.682;2023-10-13T10:28:43;27.20;1.00
11650;DHT22;5881;48.522;7.682;2023-10-13T10:31:11;27.00;1.00
11650;DHT22;5881;48.522;7.682;2023-10-13T10:33:42;27.90;1.00
11650;DHT22;5881;48.522;7.682;2023-10-13T10:36:09;27.30;1.00
11650;DHT22;5881;48.522;7.682;2023-10-13T10:38:55;26.90;1.00
11650;DHT22;5881;48.522;7.682;2023-10-13T10:41:29;26.30;1.00
11650;DHT22;5881;48.522;7.682;2023-10-13T10:44:15;25.70;1.00
11650;DHT22;5881;48.522;7.682;2023-10-13T10:46:42;25.50;1.00
11650;DHT22;5881;48.522;7.682;2023-10-13T10:49:18;25.90;1.00
11650;DHT22;5881;48.522;7.682;2023-10-13T10:51:57;25.80;1.00
11650;DHT22;5881;48.522;7.682;2023-10-13T10:54:25;25.50;1.00
11650;DHT22;5881;48.522;7.682;2023-10-13T10:56:56;25.30;1.00
11650;DHT22;5881;48.522;7.682;2023-10-13T10:59:21;25.20;1.00
11650;DHT22;5881;48.522;7.682;2023-10-13T11:01:50;25.50;1.00
11650;DHT22;5881;48.522;7.682;2023-10-13T11:04:17;26.00;1.00
11650;DHT22;5881;48.522;7.682;2023-10-13T11:06:55;26.50;1.00
11650;DHT22;5881;48.522;7.682;2023-10-13T11:09:24;26.40;1.00
11650;DHT22;5881;48.522;7.682;2023-10-13T11:14:32;27.00;1.00
11650;DHT22;5881;48.522;7.682;2023-10-13T11:16:59;27.20;1.00
11650;DHT22;5881;48.522;7.682;2023-10-13T11:19:39;27.30;1.00
11650;DHT22;5881;48.522;7.682;2023-10-13T11:22:13;27.40;1.00
11650;DHT22;5881;48.522;7.682;2023-10-13T11:24:59;27.30;1.00
11650;DHT22;5881;48.522;7.682;2023-10-13T11:27:32;27.90;1.00
11650;DHT22;5881;48.522;7.682;2023-10-13T11:30:17;28.10;1.00
11650;DHT22;5881;48.522;7.682;2023-10-13T11:33:07;28.70;1.00
11650;DHT22;5881;48.522;7.682;2023-10-13T11:35:38;29.00;1.00
11650;DHT22;5881;48.522;7.682;2023-10-13T11:38:22;29.70;1.00
11650;DHT22;5881;48.522;7.682;2023-10-13T11:40:59;29.90;1.00
11650;DHT22;5881;48.522;7.682;2023-10-13T11:43:35;29.80;1.00
11650;DHT22;5881;48.522;7.682;2023-10-13T11:46:23;29.60;1.00
11650;DHT22;5881;48.522;7.682;2023-10-13T11:49:08;29.50;1.00
11650;DHT22;5881;48.522;7.682;2023-10-13T11:51:47;29.10;1.00
11650;DHT22;5881;48.522;7.682;2023-10-13T11:56:46;28.30;1.00
11650;DHT22;5881;48.522;7.682;2023-10-13T11:59:12;27.90;1.00
11650;DHT22;5881;48.522;7.682;2023-10-13T12:01:52;28.10;1.00
11650;DHT22;5881;48.522;7.682;2023-10-13T12:04:37;28.40;1.00
11650;DHT22;5881;48.522;7.682;2023-10-13T12:07:14;28.60;1.00
11650;DHT22;5881;48.522;7.682;2023-10-13T12:09:44;29.10;1.00
11650;DHT22;5881;48.522;7.682;2023-10-13T12:12:26;29.10;1.00
11650;DHT22;5881;48.522;7.682;2023-10-13T12:14:53;29.00;1.00
11650;DHT22;5881;48.522;7.682;2023-10-13T12:17:25;28.90;1.00
11650;DHT22;5881;48.522;7.682;2023-10-13T12:19:56;29.20;1.00
11650;DHT22;5881;48.522;7.682;2023-10-13T12:22:22;29.60;1.00
11650;DHT22;5881;48.522;7.682;2023-10-13T12:25:01;29.00;1.00
11650;DHT22;5881;48.522;7.682;2023-10-13T12:27:30;29.30;1.00
11650;DHT22;5881;48.522;7.682;2023-10-13T12:30:11;29.50;1.00
11650;DHT22;5881;48.522;7.682;2023-10-13T12:32:40;29.50;1.00
11650;DHT22;5881;48.522;7.682;2023-10-13T12:35:10;29.70;1.00
11650;DHT22;5881;48.522;7.682;2023-10-13T12:37:36;29.60;1.00
11650;DHT22;5881;48.522;7.682;2023-10-13T12:40:22;29.90;1.00
11650;DHT22;5881;48.522;7.682;2023-10-13T12:43:06;29.60;1.00
11650;DHT22;5881;48.522;7.682;2023-10-13T12:45:50;30.30;1.00
11650;DHT22;5881;48.522;7.682;2023-10-13T12:48:36;30.30;1.00
11650;DHT22;5881;48.522;7.682;2023-10-13T12:51:21;29.90;1.00
11650;DHT22;5881;48.522;7.682;2023-10-13T12:54:00;29.70;1.00
11650;DHT22;5881;48.522;7.682;2023-10-13T12:56:45;30.00;1.00
11650;DHT22;5881;48.522;7.682;2023-10-13T12:59:11;29.90;1.00
11650;DHT22;5881;48.522;7.682;2023-10-13T13:01:41;29.30;1.00
11650;DHT22;5881;48.522;7.682;2023-10-13T13:04:10;29.60;1.00
11650;DHT22;5881;48.522;7.682;2023-10-13T13:06:49;29.50;1.00
11650;DHT22;5881;48.522;7.682;2023-10-13T13:09:16;29.30;1.00
11650;DHT22;5881;48.522;7.682;2023-10-13T13:11:54;29.20;1.00
11650;DHT22;5881;48.522;7.682;2023-10-13T13:14:23;29.20;1.00
11650;DHT22;5881;48.522;7.682;2023-10-13T13:16:55;29.60;1.00
11650;DHT22;5881;48.522;7.682;2023-10-13T13:19:33;29.60;1.00
11650;DHT22;5881;48.522;7.682;2023-10-13T13:22:05;29.30;1.00
11650;DHT22;5881;48.522;7.682;2023-10-13T13:24:38;29.10;1.00
11650;DHT22;5881;48.522;7.682;2023-10-13T13:27:09;29.00;1.00
11650;DHT22;5881;48.522;7.682;2023-10-13T13:29:41;28.90;1.00
11650;DHT22;5881;48.522;7.682;2023-10-13T13:32:07;28.60;1.00
11650;DHT22;5881;48.522;7.682;2023-10-13T13:34:43;28.70;1.00
11650;DHT22;5881;48.522;7.682;2023-10-13T13:37:09;29.20;1.00
11650;DHT22;5881;48.522;7.682;2023-10-13T13:39:38;29.60;1.00
11650;DHT22;5881;48.522;7.682;2023-10-13T13:42:11;29.70;1.00
11650;DHT22;5881;48.522;7.682;2023-10-13T13:44:43;29.90;1.00
11650;DHT22;5881;48.522;7.682;2023-10-13T13:47:12;29.90;1.00
11650;DHT22;5881;48.522;7.682;2023-10-13T13:49:39;29.80;1.00
11650;DHT22;5881;48.522;7.682;2023-10-13T13:52:19;29.70;1.00
11650;DHT22;5881;48.522;7.682;2023-10-13T13:54:53;29.70;1.00
11650;DHT22;5881;48.522;7.682;2023-10-13T13:57:18;29.60;1.00
11650;DHT22;5881;48.522;7.682;2023-10-13T13:59:44;29.60;1.00
11650;DHT22;5881;48.522;7.682;2023-10-13T14:02:10;29.60;1.00
11650;DHT22;5881;48.522;7.682;2023-10-13T14:04:48;29.60;1.00
11650;DHT22;5881;48.522;7.682;2023-10-13T14:07:17;29.60;1.00
11650;DHT22;5881;48.522;7.682;2023-10-13T14:09:46;29.50;1.00
11650;DHT22;5881;48.522;7.682;2023-10-13T14:12:17;29.60;1.00
11650;DHT22;5881;48.522;7.682;2023-10-13T14:14:55;29.60;1.00
11650;DHT22;5881;48.522;7.682;2023-10-13T14:17:22;29.60;1.00
11650;DHT22;5881;48.522;7.682;2023-10-13T14:20:01;29.40;1.00
11650;DHT22;5881;48.522;7.682;2023-10-13T14:22:34;29.40;1.00
11650;DHT22;5881;48.522;7.682;2023-10-13T14:25:02;29.30;1.00
11650;DHT22;5881;48.522;7.682;2023-10-13T14:27:37;29.30;1.00
11650;DHT22;5881;48.522;7.682;2023-10-13T14:30:03;29.30;1.00
11650;DHT22;5881;48.522;7.682;2023-10-13T14:32:28;29.20;1.00
11650;DHT22;5881;48.522;7.682;2023-10-13T14:34:54;29.20;1.00
11650;DHT22;5881;48.522;7.682;2023-10-13T14:37:22;29.10;1.00
11650;DHT22;5881;48.522;7.682;2023-10-13T14:39:57;29.00;1.00
11650;DHT22;5881;48.522;7.682;2023-10-13T14:42:27;29.00;1.00
11650;DHT22;5881;48.522;7.682;2023-10-13T14:44:53;28.90;1.00
11650;DHT22;5881;48.522;7.682;2023-10-13T14:47:25;28.80;1.00
11650;DHT22;5881;48.522;7.682;2023-10-13T14:49:54;28.70;1.00
11650;DHT22;5881;48.522;7.682;2023-10-13T14:52:21;28.70;1.00
11650;DHT22;5881;48.522;7.682;2023-10-13T14:54:47;28.70;1.00
11650;DHT22;5881;48.522;7.682;2023-10-13T14:57:15;28.60;1.00
11650;DHT22;5881;48.522;7.682;2023-10-13T14:59:41;28.50;1.00
11650;DHT22;5881;48.522;7.682;2023-10-13T15:02:07;28.40;1.00
11650;DHT22;5881;48.522;7.682;2023-10-13T15:04:33;28.40;1.00
11650;DHT22;5881;48.522;7.682;2023-10-13T15:07:00;28.40;1.00
11650;DHT22;5881;48.522;7.682;2023-10-13T15:09:29;28.20;1.00
11650;DHT22;5881;48.522;7.682;2023-10-13T15:11:55;28.20;1.00
11650;DHT22;5881;48.522;7.682;2023-10-13T15:14:21;28.10;1.00
11650;DHT22;5881;48.522;7.682;2023-10-13T15:16:48;28.10;1.00
11650;DHT22;5881;48.522;7.682;2023-10-13T15:19:14;27.90;1.00
11650;DHT22;5881;48.522;7.682;2023-10-13T15:21:42;27.90;1.00
11650;DHT22;5881;48.522;7.682;2023-10-13T15:24:09;27.90;1.00
11650;DHT22;5881;48.522;7.682;2023-10-13T15:26:47;27.80;1.00
11650;DHT22;5881;48.522;7.682;2023-10-13T15:29:17;27.70;1.00
11650;DHT22;5881;48.522;7.682;2023-10-13T15:31:44;27.60;1.00
11650;DHT22;5881;48.522;7.682;2023-10-13T15:34:31;27.50;1.00
11650;DHT22;5881;48.522;7.682;2023-10-13T15:36:58;27.40;1.00
11650;DHT22;5881;48.522;7.682;2023-10-13T15:39:25;27.20;1.00
11650;DHT22;5881;48.522;7.682;2023-10-13T15:41:57;27.20;1.00
11650;DHT22;5881;48.522;7.682;2023-10-13T15:44:28;27.10;1.00
11650;DHT22;5881;48.522;7.682;2023-10-13T15:46:57;27.00;1.00
11650;DHT22;5881;48.522;7.682;2023-10-13T15:49:24;26.90;1.00
11650;DHT22;5881;48.522;7.682;2023-10-13T15:51:53;26.80;1.00
11650;DHT22;5881;48.522;7.682;2023-10-13T15:54:21;26.70;1.00
11650;DHT22;5881;48.522;7.682;2023-10-13T15:56:49;26.50;1.00
11650;DHT22;5881;48.522;7.682;2023-10-13T15:59:16;26.50;1.00
11650;DHT22;5881;48.522;7.682;2023-10-13T16:01:42;26.40;1.00
11650;DHT22;5881;48.522;7.682;2023-10-13T16:04:11;26.20;1.00
11650;DHT22;5881;48.522;7.682;2023-10-13T16:06:43;26.10;1.00
11650;DHT22;5881;48.522;7.682;2023-10-13T16:09:13;25.80;1.00
11650;DHT22;5881;48.522;7.682;2023-10-13T16:11:45;25.70;1.00
11650;DHT22;5881;48.522;7.682;2023-10-13T16:14:12;25.50;1.00
11650;DHT22;5881;48.522;7.682;2023-10-13T16:16:45;25.50;1.00
11650;DHT22;5881;48.522;7.682;2023-10-13T16:19:16;25.20;1.00
11650;DHT22;5881;48.522;7.682;2023-10-13T16:21:46;25.00;1.00
11650;DHT22;5881;48.522;7.682;2023-10-13T16:24:12;24.70;1.00
11650;DHT22;5881;48.522;7.682;2023-10-13T16:26:41;24.40;1.00
11650;DHT22;5881;48.522;7.682;2023-10-13T16:29:08;24.40;1.00
11650;DHT22;5881;48.522;7.682;2023-10-13T16:31:33;24.20;1.00
11650;DHT22;5881;48.522;7.682;2023-10-13T16:33:59;23.90;1.00
11650;DHT22;5881;48.522;7.682;2023-10-13T16:36:25;23.80;1.00
11650;DHT22;5881;48.522;7.682;2023-10-13T16:38:51;23.50;1.00